Delta Billie — WDE8059 — position and weather

sailwx.info

Track history (hours):
 
Tides and Currents Weather Stations Pressure Air Temp Water Temp Dewpoint Dewpoint Depression Visibility Wind Speed Wind Dir Waves Ship Positions

Delta Billie

Owner: Baydelta Maritime, San Francicso, CA. More information available from US FCC via Universal Licensing System and Coast Guard Vessel Documentation Center.

Last reported at 2016-May-29 12:33 UTC. Time now 2016-May-29 13:24 UTC.
Position N 37°48' W 122°24'.

Length 30 m; draft 5.5 m.

Type: Towing. MMSI: 367401030.

Date/timePositionNaut miles runAvg speedWind from/ knotsBaromVisibWave heightAir tempDewpointWater temp
2016-May-29 12:33N 37°48' W 122°24'1 1.1
2016-May-29 11:33N 37°49' W 122°24'6 5.4
2016-May-29 10:25N 37°55' W 122°25'5 5.3
2016-May-29 09:33N 37°51' W 122°25'5 5.2
2016-May-29 08:33N 37°49' W 122°31'5 5.0
2016-May-29 07:33N 37°53' W 122°26'8 1.6
2016-May-29 02:23N 38°01' W 122°24'9 8.6
2016-May-29 01:22N 38°04' W 122°13'3 0.3
2016-May-28 15:23N 38°03' W 122°10'11 9.0
2016-May-28 14:09N 38°00' W 122°24'7 8.8
2016-May-28 13:25N 37°54' W 122°25'8 9.3
2016-May-28 12:33N 37°48' W 122°19'2 2.1
2016-May-28 11:34N 37°48' W 122°21'2 2.0
2016-May-28 10:33N 37°48' W 122°24'0 0.0
2016-May-28 09:33N 37°48' W 122°24'0 0.0
2016-May-28 08:32N 37°48' W 122°24'0 0.0
2016-May-28 07:30N 37°48' W 122°24'0 0.0
2016-May-28 06:14N 37°48' W 122°24'0 0.1
2016-May-28 04:24N 37°48' W 122°24'1110.0
2016-May-28 03:16N 37°60' W 122°25'7 9.3
2016-May-28 02:32N 38°03' W 122°18'6 1.4
2016-May-27 22:31N 38°03' W 122°11'11 7.8
2016-May-27 21:06N 38°01' W 122°24'10 6.6
2016-May-27 19:33N 37°51' W 122°27'3 3.0
2016-May-27 18:33N 37°49' W 122°30'9 2.3
2016-May-27 14:29N 37°48' W 122°19'3 1.4
2016-May-27 12:14N 37°49' W 122°22'3 0.9
2016-May-27 08:33N 37°51' W 122°25'5 4.3
2016-May-27 07:30N 37°56' W 122°25'4 2.0
2016-May-27 05:23N 37°60' W 122°25'910.2
2016-May-27 04:33N 38°04' W 122°15'3 0.3
2016-May-26 20:25N 38°03' W 122°12'15 4.5
2016-May-26 17:05N 37°52' W 122°24'3 5.5
2016-May-26 16:33N 37°54' W 122°22'0 0.0
2016-May-26 15:31N 37°54' W 122°22'2 2.5
2016-May-26 14:33N 37°53' W 122°25'9 8.7
2016-May-26 13:33N 38°02' W 122°22'6 5.7
2016-May-26 12:30N 38°03' W 122°15'0 0.0
2016-May-26 11:26N 38°03' W 122°15'0 0.0
2016-May-26 10:31N 38°03' W 122°15'0 0.0
2016-May-26 09:33N 38°03' W 122°15'3 0.3
2016-May-25 23:11N 38°03' W 122°11'6 8.1
2016-May-25 22:27N 38°03' W 122°18'7 7.2
2016-May-25 21:29N 37°59' W 122°25'7 7.4
2016-May-25 20:33N 37°52' W 122°25'5 5.2
2016-May-25 19:33N 37°49' W 122°30'1 1.0
2016-May-25 18:33N 37°49' W 122°31'3 2.7
2016-May-25 17:33N 37°49' W 122°27'3 2.9
2016-May-25 16:33N 37°48' W 122°24'0 0.0
2016-May-25 15:33N 37°48' W 122°24'3 2.7
2016-May-25 14:33N 37°48' W 122°21'0 0.2
2016-May-25 13:33N 37°48' W 122°20'3 2.9
2016-May-25 12:33N 37°48' W 122°24'0 0.0
2016-May-25 11:33N 37°48' W 122°24'0 0.0
2016-May-25 10:33N 37°48' W 122°24'0 0.0
2016-May-25 09:33N 37°48' W 122°24'0 0.0
2016-May-25 08:33N 37°48' W 122°24'0 0.0
2016-May-25 07:33N 37°48' W 122°24'0 0.0
2016-May-25 06:33N 37°48' W 122°24'0 0.0
2016-May-25 05:33N 37°48' W 122°24'4 4.3
2016-May-25 04:33N 37°48' W 122°19'1 0.8
2016-May-25 03:33N 37°48' W 122°20'0 0.2
2016-May-25 02:33N 37°48' W 122°19'0 0.0
2016-May-25 01:33N 37°48' W 122°19'2 2.0
2016-May-25 00:33N 37°49' W 122°21'8 8.2
2016-May-24 23:32N 37°57' W 122°26'8 7.8
2016-May-24 22:33N 38°03' W 122°20'3 3.4
2016-May-24 21:33N 38°03' W 122°16'4 3.7
2016-May-24 20:33N 38°03' W 122°20'9 9.2
2016-May-24 19:33N 37°55' W 122°27'6 6.1
2016-May-24 18:34N 37°49' W 122°28'2 2.2
2016-May-24 17:33N 37°48' W 122°30'5 4.9
2016-May-24 16:33N 37°48' W 122°24'0 0.0
2016-May-24 15:33N 37°48' W 122°24'0 0.0
2016-May-24 14:34N 37°48' W 122°24'3 2.8
2016-May-24 13:34N 37°48' W 122°20'3 2.8
2016-May-24 12:33N 37°48' W 122°24'0 0.0
2016-May-24 11:33N 37°48' W 122°24'0 0.0
2016-May-24 10:33N 37°48' W 122°24'5 5.3
2016-May-24 09:33N 37°53' W 122°25'9 9.2
2016-May-24 08:33N 38°02' W 122°21'7 0.3
2016-May-23 13:14N 38°04' W 122°13'9 8.2
2016-May-23 12:09N 38°01' W 122°24'5 7.9
2016-May-23 11:33N 37°56' W 122°26'9 8.8
2016-May-23 10:33N 37°49' W 122°20'2 1.7
2016-May-23 09:33N 37°48' W 122°22'1 1.5
2016-May-23 08:33N 37°48' W 122°24'0 0.0
2016-May-23 07:33N 37°48' W 122°24'0 0.0
2016-May-23 06:33N 37°48' W 122°24'0 0.0
2016-May-23 05:33N 37°48' W 122°24'0 0.0
2016-May-23 04:33N 37°48' W 122°24'0 0.0
2016-May-23 03:33N 37°48' W 122°24'0 0.0
2016-May-23 02:33N 37°48' W 122°24'0 0.0
2016-May-23 01:33N 37°48' W 122°24'0 0.0
2016-May-23 00:33N 37°48' W 122°24'4 3.9
2016-May-22 23:33N 37°48' W 122°19'1 0.6
2016-May-22 22:33N 37°48' W 122°18'0 0.2
2016-May-22 21:33N 37°48' W 122°19'1 0.9
2016-May-22 20:33N 37°48' W 122°17'3 3.2
2016-May-22 19:33N 37°48' W 122°21'6 5.9
2016-May-22 18:33N 37°53' W 122°25'3 2.7
2016-May-22 17:33N 37°55' W 122°22'2 2.1
2016-May-22 16:33N 37°55' W 122°25'7 7.0
2016-May-22 15:33N 37°48' W 122°21'1 0.8
2016-May-22 14:33N 37°49' W 122°20'2 2.3
2016-May-22 13:34N 37°49' W 122°23'3 3.5
2016-May-22 12:33N 37°48' W 122°19'1 0.8
2016-May-22 11:33N 37°48' W 122°20'5 5.4
2016-May-22 10:33N 37°49' W 122°26'3 3.1
2016-May-22 09:33N 37°49' W 122°30'9 8.2
2016-May-22 08:30N 37°57' W 122°27'8 8.8
2016-May-22 07:33N 38°03' W 122°20'4 3.6
2016-May-22 06:33N 38°04' W 122°15'2 0.2
2016-May-21 20:33N 38°03' W 122°18'9 9.2
2016-May-21 19:33N 37°56' W 122°26'8 8.5
2016-May-21 18:33N 37°48' W 122°24'0 0.0
2016-May-21 17:33N 37°48' W 122°24'0 0.0
2016-May-21 16:33N 37°48' W 122°24'0 0.1
2016-May-21 15:33N 37°48' W 122°24'4 4.2
2016-May-21 14:33N 37°48' W 122°19'1 0.7
2016-May-21 13:33N 37°48' W 122°19'2 1.8
2016-May-21 12:33N 37°48' W 122°17'5 4.9
2016-May-21 11:33N 37°48' W 122°23'0 0.4
2016-May-21 10:33N 37°48' W 122°24'5 4.6
2016-May-21 09:33N 37°53' W 122°25'1010.1
2016-May-21 08:33N 38°02' W 122°21'10 8.8
2016-May-21 07:27N 38°02' W 122°08'1 0.0
2016-May-20 05:27N 38°02' W 122°08'  
Track history (hours):
 
Tides and Currents Weather Stations Pressure Air Temp Water Temp Dewpoint Dewpoint Depression Visibility Wind Speed Wind Dir Waves Ship Positions

Delta Billie

Owner: Baydelta Maritime, San Francicso, CA. More information available from US FCC via Universal Licensing System and Coast Guard Vessel Documentation Center.

Last reported at 2016-May-29 12:33 UTC. Time now 2016-May-29 13:24 UTC.
Position N 37°48' W 122°24'.

Length 30 m; draft 5.5 m.

Type: Towing. MMSI: 367401030.

Date/timePositionNaut miles runAvg speedWind from/ knotsBaromVisibWave heightAir tempDewpointWater temp
2016-May-29 12:33N 37°48' W 122°24'1 1.1
2016-May-29 11:33N 37°49' W 122°24'6 5.4
2016-May-29 10:25N 37°55' W 122°25'5 5.3
2016-May-29 09:33N 37°51' W 122°25'5 5.2
2016-May-29 08:33N 37°49' W 122°31'5 5.0
2016-May-29 07:33N 37°53' W 122°26'8 1.6
2016-May-29 02:23N 38°01' W 122°24'9 8.6
2016-May-29 01:22N 38°04' W 122°13'3 0.3
2016-May-28 15:23N 38°03' W 122°10'11 9.0
2016-May-28 14:09N 38°00' W 122°24'7 8.8
2016-May-28 13:25N 37°54' W 122°25'8 9.3
2016-May-28 12:33N 37°48' W 122°19'2 2.1
2016-May-28 11:34N 37°48' W 122°21'2 2.0
2016-May-28 10:33N 37°48' W 122°24'0 0.0
2016-May-28 09:33N 37°48' W 122°24'0 0.0
2016-May-28 08:32N 37°48' W 122°24'0 0.0
2016-May-28 07:30N 37°48' W 122°24'0 0.0
2016-May-28 06:14N 37°48' W 122°24'0 0.1
2016-May-28 04:24N 37°48' W 122°24'1110.0
2016-May-28 03:16N 37°60' W 122°25'7 9.3
2016-May-28 02:32N 38°03' W 122°18'6 1.4
2016-May-27 22:31N 38°03' W 122°11'11 7.8
2016-May-27 21:06N 38°01' W 122°24'10 6.6
2016-May-27 19:33N 37°51' W 122°27'3 3.0
2016-May-27 18:33N 37°49' W 122°30'9 2.3
2016-May-27 14:29N 37°48' W 122°19'3 1.4
2016-May-27 12:14N 37°49' W 122°22'3 0.9
2016-May-27 08:33N 37°51' W 122°25'5 4.3
2016-May-27 07:30N 37°56' W 122°25'4 2.0
2016-May-27 05:23N 37°60' W 122°25'910.2
2016-May-27 04:33N 38°04' W 122°15'3 0.3
2016-May-26 20:25N 38°03' W 122°12'15 4.5
2016-May-26 17:05N 37°52' W 122°24'3 5.5
2016-May-26 16:33N 37°54' W 122°22'0 0.0
2016-May-26 15:31N 37°54' W 122°22'2 2.5
2016-May-26 14:33N 37°53' W 122°25'9 8.7
2016-May-26 13:33N 38°02' W 122°22'6 5.7
2016-May-26 12:30N 38°03' W 122°15'0 0.0
2016-May-26 11:26N 38°03' W 122°15'0 0.0
2016-May-26 10:31N 38°03' W 122°15'0 0.0
2016-May-26 09:33N 38°03' W 122°15'3 0.3
2016-May-25 23:11N 38°03' W 122°11'6 8.1
2016-May-25 22:27N 38°03' W 122°18'7 7.2
2016-May-25 21:29N 37°59' W 122°25'7 7.4
2016-May-25 20:33N 37°52' W 122°25'5 5.2
2016-May-25 19:33N 37°49' W 122°30'1 1.0
2016-May-25 18:33N 37°49' W 122°31'3 2.7
2016-May-25 17:33N 37°49' W 122°27'3 2.9
2016-May-25 16:33N 37°48' W 122°24'0 0.0
2016-May-25 15:33N 37°48' W 122°24'3 2.7
2016-May-25 14:33N 37°48' W 122°21'0 0.2
2016-May-25 13:33N 37°48' W 122°20'3 2.9
2016-May-25 12:33N 37°48' W 122°24'0 0.0
2016-May-25 11:33N 37°48' W 122°24'0 0.0
2016-May-25 10:33N 37°48' W 122°24'0 0.0
2016-May-25 09:33N 37°48' W 122°24'0 0.0
2016-May-25 08:33N 37°48' W 122°24'0 0.0
2016-May-25 07:33N 37°48' W 122°24'0 0.0
2016-May-25 06:33N 37°48' W 122°24'0 0.0
2016-May-25 05:33N 37°48' W 122°24'4 4.3
2016-May-25 04:33N 37°48' W 122°19'1 0.8
2016-May-25 03:33N 37°48' W 122°20'0 0.2
2016-May-25 02:33N 37°48' W 122°19'0 0.0
2016-May-25 01:33N 37°48' W 122°19'2 2.0
2016-May-25 00:33N 37°49' W 122°21'8 8.2
2016-May-24 23:32N 37°57' W 122°26'8 7.8
2016-May-24 22:33N 38°03' W 122°20'3 3.4
2016-May-24 21:33N 38°03' W 122°16'4 3.7
2016-May-24 20:33N 38°03' W 122°20'9 9.2
2016-May-24 19:33N 37°55' W 122°27'6 6.1
2016-May-24 18:34N 37°49' W 122°28'2 2.2
2016-May-24 17:33N 37°48' W 122°30'5 4.9
2016-May-24 16:33N 37°48' W 122°24'0 0.0
2016-May-24 15:33N 37°48' W 122°24'0 0.0
2016-May-24 14:34N 37°48' W 122°24'3 2.8
2016-May-24 13:34N 37°48' W 122°20'3 2.8
2016-May-24 12:33N 37°48' W 122°24'0 0.0
2016-May-24 11:33N 37°48' W 122°24'0 0.0
2016-May-24 10:33N 37°48' W 122°24'5 5.3
2016-May-24 09:33N 37°53' W 122°25'9 9.2
2016-May-24 08:33N 38°02' W 122°21'7 0.3
2016-May-23 13:14N 38°04' W 122°13'9 8.2
2016-May-23 12:09N 38°01' W 122°24'5 7.9
2016-May-23 11:33N 37°56' W 122°26'9 8.8
2016-May-23 10:33N 37°49' W 122°20'2 1.7
2016-May-23 09:33N 37°48' W 122°22'1 1.5
2016-May-23 08:33N 37°48' W 122°24'0 0.0
2016-May-23 07:33N 37°48' W 122°24'0 0.0
2016-May-23 06:33N 37°48' W 122°24'0 0.0
2016-May-23 05:33N 37°48' W 122°24'0 0.0
2016-May-23 04:33N 37°48' W 122°24'0 0.0
2016-May-23 03:33N 37°48' W 122°24'0 0.0
2016-May-23 02:33N 37°48' W 122°24'0 0.0
2016-May-23 01:33N 37°48' W 122°24'0 0.0
2016-May-23 00:33N 37°48' W 122°24'4 3.9
2016-May-22 23:33N 37°48' W 122°19'1 0.6
2016-May-22 22:33N 37°48' W 122°18'0 0.2
2016-May-22 21:33N 37°48' W 122°19'1 0.9
2016-May-22 20:33N 37°48' W 122°17'3 3.2
2016-May-22 19:33N 37°48' W 122°21'6 5.9
2016-May-22 18:33N 37°53' W 122°25'3 2.7
2016-May-22 17:33N 37°55' W 122°22'2 2.1
2016-May-22 16:33N 37°55' W 122°25'7 7.0
2016-May-22 15:33N 37°48' W 122°21'1 0.8
2016-May-22 14:33N 37°49' W 122°20'2 2.3
2016-May-22 13:34N 37°49' W 122°23'3 3.5
2016-May-22 12:33N 37°48' W 122°19'1 0.8
2016-May-22 11:33N 37°48' W 122°20'5 5.4
2016-May-22 10:33N 37°49' W 122°26'3 3.1
2016-May-22 09:33N 37°49' W 122°30'9 8.2
2016-May-22 08:30N 37°57' W 122°27'8 8.8
2016-May-22 07:33N 38°03' W 122°20'4 3.6
2016-May-22 06:33N 38°04' W 122°15'2 0.2
2016-May-21 20:33N 38°03' W 122°18'9 9.2
2016-May-21 19:33N 37°56' W 122°26'8 8.5
2016-May-21 18:33N 37°48' W 122°24'0 0.0
2016-May-21 17:33N 37°48' W 122°24'0 0.0
2016-May-21 16:33N 37°48' W 122°24'0 0.1
2016-May-21 15:33N 37°48' W 122°24'4 4.2
2016-May-21 14:33N 37°48' W 122°19'1 0.7
2016-May-21 13:33N 37°48' W 122°19'2 1.8
2016-May-21 12:33N 37°48' W 122°17'5 4.9
2016-May-21 11:33N 37°48' W 122°23'0 0.4
2016-May-21 10:33N 37°48' W 122°24'5 4.6
2016-May-21 09:33N 37°53' W 122°25'1010.1
2016-May-21 08:33N 38°02' W 122°21'10 8.8
2016-May-21 07:27N 38°02' W 122°08'1 0.0
2016-May-20 05:27N 38°02' W 122°08'  

Dump ship's entire track history